Airfield :
LOGIN :

Register | Disclaimer

   EN    FR    IT 

 










Legend :    VFR   Marginal VFR   IFR   Intensive IFR   Very Intensive IFR
Visi :
Ceiling :
>= 8 km
>= 3000ft
5 to 8 km
1000 to 3000 ft
1500m to 5 km
500 to 1000 ft
800 to 1500m
200 to 500 ft
< 800m
< 200 ft
Symbols :   Thunderstorms  Fog  Heavy snow  Heavy precipitations  Wind > 20 kt
SIGMETs :     Misc.  Thunderstorms  Icing  Turbulence  Mountain Waves  Volcanic Ashes







- Airport Elevation : 219 ft
- IATA code : DNR
- Download approach charts


LFRD - Dinard

CURRENT METAR :
  • 212200Z AUTO 02007KT CAVOK 14/11 Q1014

EXPIRED METARs :
  • 212130Z AUTO 02006KT 8000 NSC 13/12 Q1014
  • 212100Z AUTO 01005KT 8000 NSC 13/12 Q1014
  • 212030Z AUTO 36006KT 9000 NSC 13/12 Q1014
  • 212000Z AUTO 34005KT 310V010 9000 NSC 14/12 Q1014
  • 211930Z AUTO 33007KT CAVOK 15/12 Q1014

TAF TAF LFRD
Valid from the 21 at 12:00 until the 22 at 12:00 UTC


211100Z 2112/2212 36010KT 8000 FEW040
BECMG 2120/2122 VRB03KT
BECMG 2122/2124 3000 BR
PROB40
TEMPO 2202/2206 0400 FG VV///
BECMG 2206/2209 6000 NSW
BECMG 2210/2212 32010KT
ATIS : +33 2 99 16 81 50
No reported NOTAMs for that airfield.



MET'MAP, your aeronautical weather chart ! - Copyright ORBIFLY December 2007 - Disclaimer

ORBIFLY MET'MAP TEAM :

Programming & Development : Alexandra Zaïnal
Concept & Development : Baudouin d'Aumeries
Co-Development & Prog : Marc-Olivier Méhu
Technical & hardware support : Manuel Goepfert

Contact : metmap@orbifly.com




SOURCES & CREDITS :

   NOAA